sensor_id;sensor_type;location;lat;lon;timestamp;P1;durP1;ratioP1;P2;durP2;ratioP2
42802;SDS011;28447;48.682;9.022;2023-07-22T04:02:19;8.13;;;3.80;;
42802;SDS011;28447;48.682;9.022;2023-07-22T04:04:45;5.33;;;4.00;;
42802;SDS011;28447;48.682;9.022;2023-07-22T04:07:11;5.07;;;3.90;;
42802;SDS011;28447;48.682;9.022;2023-07-22T04:09:37;5.33;;;4.00;;
42802;SDS011;28447;48.682;9.022;2023-07-22T04:12:04;6.57;;;4.77;;
42802;SDS011;28447;48.682;9.022;2023-07-22T04:14:30;9.60;;;4.50;;
42802;SDS011;28447;48.682;9.022;2023-07-22T04:16:56;7.30;;;4.07;;
42802;SDS011;28447;48.682;9.022;2023-07-22T04:19:22;5.70;;;3.90;;
42802;SDS011;28447;48.682;9.022;2023-07-22T04:21:48;6.20;;;3.87;;
42802;SDS011;28447;48.682;9.022;2023-07-22T04:24:14;5.63;;;4.43;;
42802;SDS011;28447;48.682;9.022;2023-07-22T04:26:42;10.17;;;5.03;;
42802;SDS011;28447;48.682;9.022;2023-07-22T04:29:11;5.10;;;4.10;;
42802;SDS011;28447;48.682;9.022;2023-07-22T04:31:38;9.10;;;4.77;;
42802;SDS011;28447;48.682;9.022;2023-07-22T04:34:04;5.43;;;4.00;;
42802;SDS011;28447;48.682;9.022;2023-07-22T04:36:30;5.13;;;4.13;;
42802;SDS011;28447;48.682;9.022;2023-07-22T04:38:56;7.10;;;4.27;;
42802;SDS011;28447;48.682;9.022;2023-07-22T04:41:22;7.70;;;4.80;;
42802;SDS011;28447;48.682;9.022;2023-07-22T04:43:49;7.50;;;4.37;;
42802;SDS011;28447;48.682;9.022;2023-07-22T04:46:16;4.77;;;4.37;;
42802;SDS011;28447;48.682;9.022;2023-07-22T04:48:42;6.30;;;4.57;;
42802;SDS011;28447;48.682;9.022;2023-07-22T04:51:08;6.10;;;4.73;;
42802;SDS011;28447;48.682;9.022;2023-07-22T04:53:34;5.70;;;4.90;;
42802;SDS011;28447;48.682;9.022;2023-07-22T04:56:03;5.90;;;4.53;;
42802;SDS011;28447;48.682;9.022;2023-07-22T04:58:29;8.40;;;4.50;;
42802;SDS011;28447;48.682;9.022;2023-07-22T05:00:55;5.27;;;4.40;;
42802;SDS011;28447;48.682;9.022;2023-07-22T05:03:21;5.97;;;4.73;;
42802;SDS011;28447;48.682;9.022;2023-07-22T05:05:50;6.23;;;5.10;;
42802;SDS011;28447;48.682;9.022;2023-07-22T05:08:16;7.13;;;4.20;;
42802;SDS011;28447;48.682;9.022;2023-07-22T05:10:42;5.63;;;4.27;;
42802;SDS011;28447;48.682;9.022;2023-07-22T05:13:08;5.30;;;4.20;;
42802;SDS011;28447;48.682;9.022;2023-07-22T05:15:34;6.70;;;3.87;;
42802;SDS011;28447;48.682;9.022;2023-07-22T05:18:00;8.10;;;4.60;;
42802;SDS011;28447;48.682;9.022;2023-07-22T05:20:26;6.20;;;4.40;;
42802;SDS011;28447;48.682;9.022;2023-07-22T05:22:52;5.50;;;3.97;;
42802;SDS011;28447;48.682;9.022;2023-07-22T05:25:18;8.13;;;4.57;;
42802;SDS011;28447;48.682;9.022;2023-07-22T05:27:44;6.53;;;4.00;;
42802;SDS011;28447;48.682;9.022;2023-07-22T05:30:10;5.90;;;4.10;;
42802;SDS011;28447;48.682;9.022;2023-07-22T05:32:36;5.90;;;4.07;;
42802;SDS011;28447;48.682;9.022;2023-07-22T05:35:02;5.63;;;4.10;;
42802;SDS011;28447;48.682;9.022;2023-07-22T05:37:30;5.30;;;3.93;;
42802;SDS011;28447;48.682;9.022;2023-07-22T05:39:56;5.10;;;4.30;;
42802;SDS011;28447;48.682;9.022;2023-07-22T05:42:21;4.80;;;4.20;;
42802;SDS011;28447;48.682;9.022;2023-07-22T05:44:53;5.10;;;3.80;;
42802;SDS011;28447;48.682;9.022;2023-07-22T05:47:19;5.47;;;3.50;;
42802;SDS011;28447;48.682;9.022;2023-07-22T05:49:45;4.80;;;4.00;;
42802;SDS011;28447;48.682;9.022;2023-07-22T05:52:11;4.87;;;3.70;;
42802;SDS011;28447;48.682;9.022;2023-07-22T05:54:37;3.80;;;3.40;;
42802;SDS011;28447;48.682;9.022;2023-07-22T05:57:03;4.50;;;3.40;;
42802;SDS011;28447;48.682;9.022;2023-07-22T05:59:30;5.00;;;3.87;;
42802;SDS011;28447;48.682;9.022;2023-07-22T06:01:56;4.60;;;3.60;;
42802;SDS011;28447;48.682;9.022;2023-07-22T06:04:22;3.83;;;3.30;;
42802;SDS011;28447;48.682;9.022;2023-07-22T06:06:48;3.80;;;3.33;;
42802;SDS011;28447;48.682;9.022;2023-07-22T06:09:14;3.30;;;2.80;;
42802;SDS011;28447;48.682;9.022;2023-07-22T06:11:39;3.67;;;3.27;;
42802;SDS011;28447;48.682;9.022;2023-07-22T06:14:05;8.63;;;3.73;;
42802;SDS011;28447;48.682;9.022;2023-07-22T06:16:31;5.40;;;3.97;;
42802;SDS011;28447;48.682;9.022;2023-07-22T06:18:57;4.83;;;3.30;;
42802;SDS011;28447;48.682;9.022;2023-07-22T06:21:23;4.63;;;2.93;;
42802;SDS011;28447;48.682;9.022;2023-07-22T06:23:48;5.03;;;3.30;;
42802;SDS011;28447;48.682;9.022;2023-07-22T06:26:14;3.73;;;3.23;;
42802;SDS011;28447;48.682;9.022;2023-07-22T06:28:39;4.50;;;3.33;;
42802;SDS011;28447;48.682;9.022;2023-07-22T06:31:05;6.90;;;3.50;;
42802;SDS011;28447;48.682;9.022;2023-07-22T06:33:33;4.70;;;3.73;;
42802;SDS011;28447;48.682;9.022;2023-07-22T06:35:59;5.73;;;3.50;;
42802;SDS011;28447;48.682;9.022;2023-07-22T06:38:25;3.80;;;2.90;;
42802;SDS011;28447;48.682;9.022;2023-07-22T06:40:52;3.50;;;3.00;;
42802;SDS011;28447;48.682;9.022;2023-07-22T06:43:18;4.90;;;3.13;;
42802;SDS011;28447;48.682;9.022;2023-07-22T06:45:44;4.00;;;3.40;;
42802;SDS011;28447;48.682;9.022;2023-07-22T06:48:13;4.60;;;3.20;;
42802;SDS011;28447;48.682;9.022;2023-07-22T06:50:38;5.23;;;3.30;;
42802;SDS011;28447;48.682;9.022;2023-07-22T06:53:04;4.80;;;3.33;;
42802;SDS011;28447;48.682;9.022;2023-07-22T06:55:29;6.47;;;3.17;;
42802;SDS011;28447;48.682;9.022;2023-07-22T06:57:56;4.13;;;3.57;;
42802;SDS011;28447;48.682;9.022;2023-07-22T07:00:24;4.33;;;3.20;;
42802;SDS011;28447;48.682;9.022;2023-07-22T07:02:50;10.20;;;3.60;;
42802;SDS011;28447;48.682;9.022;2023-07-22T07:05:19;3.73;;;3.10;;
42802;SDS011;28447;48.682;9.022;2023-07-22T07:07:48;3.83;;;3.20;;
42802;SDS011;28447;48.682;9.022;2023-07-22T07:10:14;4.23;;;2.70;;
42802;SDS011;28447;48.682;9.022;2023-07-22T07:12:40;4.93;;;3.33;;
42802;SDS011;28447;48.682;9.022;2023-07-22T07:15:06;3.80;;;3.20;;
42802;SDS011;28447;48.682;9.022;2023-07-22T07:17:34;8.00;;;3.33;;
42802;SDS011;28447;48.682;9.022;2023-07-22T07:19:59;4.03;;;2.93;;
42802;SDS011;28447;48.682;9.022;2023-07-22T07:22:26;4.37;;;3.07;;
42802;SDS011;28447;48.682;9.022;2023-07-22T07:24:51;4.70;;;3.23;;
42802;SDS011;28447;48.682;9.022;2023-07-22T07:27:17;3.40;;;2.70;;
42802;SDS011;28447;48.682;9.022;2023-07-22T07:29:42;3.53;;;2.63;;
42802;SDS011;28447;48.682;9.022;2023-07-22T07:32:08;4.40;;;3.70;;
42802;SDS011;28447;48.682;9.022;2023-07-22T07:34:36;3.97;;;3.17;;
42802;SDS011;28447;48.682;9.022;2023-07-22T07:37:02;4.67;;;2.97;;
42802;SDS011;28447;48.682;9.022;2023-07-22T07:39:27;4.00;;;2.77;;
42802;SDS011;28447;48.682;9.022;2023-07-22T07:41:54;3.50;;;3.07;;
42802;SDS011;28447;48.682;9.022;2023-07-22T07:44:19;3.73;;;2.87;;
42802;SDS011;28447;48.682;9.022;2023-07-22T07:46:45;6.03;;;2.80;;
42802;SDS011;28447;48.682;9.022;2023-07-22T07:49:10;3.67;;;3.10;;
42802;SDS011;28447;48.682;9.022;2023-07-22T07:51:36;3.10;;;2.50;;
42802;SDS011;28447;48.682;9.022;2023-07-22T07:54:02;3.90;;;3.00;;
42802;SDS011;28447;48.682;9.022;2023-07-22T07:56:29;3.47;;;3.07;;
42802;SDS011;28447;48.682;9.022;2023-07-22T07:58:54;4.40;;;2.73;;
42802;SDS011;28447;48.682;9.022;2023-07-22T08:01:20;3.60;;;3.00;;
42802;SDS011;28447;48.682;9.022;2023-07-22T08:03:49;3.90;;;3.17;;
42802;SDS011;28447;48.682;9.022;2023-07-22T08:06:15;3.93;;;2.80;;
42802;SDS011;28447;48.682;9.022;2023-07-22T08:08:41;7.83;;;3.23;;
42802;SDS011;28447;48.682;9.022;2023-07-22T08:13:33;3.00;;;2.70;;
42802;SDS011;28447;48.682;9.022;2023-07-22T08:16:01;3.00;;;2.70;;
42802;SDS011;28447;48.682;9.022;2023-07-22T08:18:28;3.50;;;3.20;;
42802;SDS011;28447;48.682;9.022;2023-07-22T08:20:54;4.03;;;2.80;;
42802;SDS011;28447;48.682;9.022;2023-07-22T08:23:20;4.07;;;2.83;;
42802;SDS011;28447;48.682;9.022;2023-07-22T08:25:46;4.13;;;2.90;;
42802;SDS011;28447;48.682;9.022;2023-07-22T08:28:12;5.30;;;2.53;;
42802;SDS011;28447;48.682;9.022;2023-07-22T08:30:38;2.90;;;2.60;;
42802;SDS011;28447;48.682;9.022;2023-07-22T08:33:05;5.20;;;3.17;;
42802;SDS011;28447;48.682;9.022;2023-07-22T08:35:33;2.97;;;2.67;;
42802;SDS011;28447;48.682;9.022;2023-07-22T08:38:00;6.30;;;2.70;;
42802;SDS011;28447;48.682;9.022;2023-07-22T08:40:27;2.80;;;2.53;;
42802;SDS011;28447;48.682;9.022;2023-07-22T08:42:53;3.83;;;2.70;;
42802;SDS011;28447;48.682;9.022;2023-07-22T08:45:20;3.57;;;2.90;;
42802;SDS011;28447;48.682;9.022;2023-07-22T08:47:47;4.10;;;2.40;;
42802;SDS011;28447;48.682;9.022;2023-07-22T08:50:19;3.93;;;2.40;;
42802;SDS011;28447;48.682;9.022;2023-07-22T08:52:46;2.40;;;2.20;;
42802;SDS011;28447;48.682;9.022;2023-07-22T08:55:13;2.80;;;2.60;;
42802;SDS011;28447;48.682;9.022;2023-07-22T08:57:39;3.73;;;2.47;;
42802;SDS011;28447;48.682;9.022;2023-07-22T09:00:07;3.50;;;2.67;;
42802;SDS011;28447;48.682;9.022;2023-07-22T09:02:34;2.93;;;2.63;;
42802;SDS011;28447;48.682;9.022;2023-07-22T09:05:01;3.40;;;2.47;;
42802;SDS011;28447;48.682;9.022;2023-07-22T09:07:27;3.23;;;2.70;;
42802;SDS011;28447;48.682;9.022;2023-07-22T09:09:57;3.13;;;2.83;;
42802;SDS011;28447;48.682;9.022;2023-07-22T09:12:23;4.47;;;3.00;;
42802;SDS011;28447;48.682;9.022;2023-07-22T09:14:50;2.50;;;2.30;;
42802;SDS011;28447;48.682;9.022;2023-07-22T09:17:17;3.13;;;2.47;;
42802;SDS011;28447;48.682;9.022;2023-07-22T09:19:42;2.33;;;2.13;;
42802;SDS011;28447;48.682;9.022;2023-07-22T09:22:08;3.10;;;2.50;;
42802;SDS011;28447;48.682;9.022;2023-07-22T09:24:34;6.60;;;2.30;;
42802;SDS011;28447;48.682;9.022;2023-07-22T09:27:00;3.10;;;2.33;;
42802;SDS011;28447;48.682;9.022;2023-07-22T09:29:35;3.00;;;2.57;;
42802;SDS011;28447;48.682;9.022;2023-07-22T09:32:09;3.10;;;2.40;;
42802;SDS011;28447;48.682;9.022;2023-07-22T09:34:34;2.97;;;2.40;;
42802;SDS011;28447;48.682;9.022;2023-07-22T09:37:00;2.60;;;2.40;;
42802;SDS011;28447;48.682;9.022;2023-07-22T09:39:26;3.50;;;2.20;;
42802;SDS011;28447;48.682;9.022;2023-07-22T09:41:52;2.10;;;1.90;;
42802;SDS011;28447;48.682;9.022;2023-07-22T09:44:18;2.87;;;2.60;;
42802;SDS011;28447;48.682;9.022;2023-07-22T09:46:47;3.20;;;2.10;;
42802;SDS011;28447;48.682;9.022;2023-07-22T09:49:15;2.90;;;2.20;;
42802;SDS011;28447;48.682;9.022;2023-07-22T09:51:53;3.57;;;2.50;;
42802;SDS011;28447;48.682;9.022;2023-07-22T09:54:19;2.57;;;2.30;;
42802;SDS011;28447;48.682;9.022;2023-07-22T09:56:49;3.60;;;2.40;;
42802;SDS011;28447;48.682;9.022;2023-07-22T09:59:15;4.73;;;2.40;;
42802;SDS011;28447;48.682;9.022;2023-07-22T10:01:43;2.10;;;1.90;;
42802;SDS011;28447;48.682;9.022;2023-07-22T10:04:12;2.70;;;2.50;;
42802;SDS011;28447;48.682;9.022;2023-07-22T10:06:40;2.77;;;2.53;;
42802;SDS011;28447;48.682;9.022;2023-07-22T10:09:08;2.40;;;2.20;;
42802;SDS011;28447;48.682;9.022;2023-07-22T10:11:37;12.07;;;2.63;;
42802;SDS011;28447;48.682;9.022;2023-07-22T10:14:04;3.47;;;2.33;;
42802;SDS011;28447;48.682;9.022;2023-07-22T10:16:30;4.60;;;2.60;;
42802;SDS011;28447;48.682;9.022;2023-07-22T10:18:57;6.37;;;2.20;;
42802;SDS011;28447;48.682;9.022;2023-07-22T10:21:24;3.77;;;2.50;;
42802;SDS011;28447;48.682;9.022;2023-07-22T10:23:50;2.40;;;2.20;;
42802;SDS011;28447;48.682;9.022;2023-07-22T10:26:17;2.80;;;2.50;;
42802;SDS011;28447;48.682;9.022;2023-07-22T10:28:47;3.10;;;2.80;;
42802;SDS011;28447;48.682;9.022;2023-07-22T10:31:13;3.60;;;2.90;;
42802;SDS011;28447;48.682;9.022;2023-07-22T10:33:44;2.90;;;2.33;;
42802;SDS011;28447;48.682;9.022;2023-07-22T10:36:15;2.53;;;2.27;;
42802;SDS011;28447;48.682;9.022;2023-07-22T10:38:51;4.90;;;2.63;;
42802;SDS011;28447;48.682;9.022;2023-07-22T10:41:22;4.60;;;2.40;;
42802;SDS011;28447;48.682;9.022;2023-07-22T10:43:55;2.97;;;2.50;;
42802;SDS011;28447;48.682;9.022;2023-07-22T10:49:14;3.00;;;2.33;;
42802;SDS011;28447;48.682;9.022;2023-07-22T10:51:41;3.10;;;2.50;;
42802;SDS011;28447;48.682;9.022;2023-07-22T10:54:14;3.40;;;2.30;;
42802;SDS011;28447;48.682;9.022;2023-07-22T10:56:56;9.83;;;2.70;;
42802;SDS011;28447;48.682;9.022;2023-07-22T11:00:07;3.90;;;3.00;;
42802;SDS011;28447;48.682;9.022;2023-07-22T11:02:26;2.80;;;2.60;;
42802;SDS011;28447;48.682;9.022;2023-07-22T11:04:55;4.30;;;2.87;;
42802;SDS011;28447;48.682;9.022;2023-07-22T11:07:43;4.43;;;3.13;;
42802;SDS011;28447;48.682;9.022;2023-07-22T11:10:14;3.57;;;2.97;;
42802;SDS011;28447;48.682;9.022;2023-07-22T11:12:45;3.40;;;2.70;;
42802;SDS011;28447;48.682;9.022;2023-07-22T11:15:11;2.90;;;2.60;;
42802;SDS011;28447;48.682;9.022;2023-07-22T11:17:40;3.80;;;2.70;;
42802;SDS011;28447;48.682;9.022;2023-07-22T11:20:06;4.07;;;3.10;;
42802;SDS011;28447;48.682;9.022;2023-07-22T11:22:32;4.07;;;2.77;;
42802;SDS011;28447;48.682;9.022;2023-07-22T11:24:58;4.10;;;3.00;;
42802;SDS011;28447;48.682;9.022;2023-07-22T11:27:24;5.00;;;3.10;;
42802;SDS011;28447;48.682;9.022;2023-07-22T11:29:51;3.70;;;2.77;;
42802;SDS011;28447;48.682;9.022;2023-07-22T11:32:20;3.10;;;2.80;;
42802;SDS011;28447;48.682;9.022;2023-07-22T11:34:50;4.00;;;2.80;;
42802;SDS011;28447;48.682;9.022;2023-07-22T11:37:17;2.70;;;2.20;;
42802;SDS011;28447;48.682;9.022;2023-07-22T11:39:43;3.47;;;3.17;;
42802;SDS011;28447;48.682;9.022;2023-07-22T11:42:09;2.70;;;2.50;;
42802;SDS011;28447;48.682;9.022;2023-07-22T11:44:36;3.10;;;2.77;;
42802;SDS011;28447;48.682;9.022;2023-07-22T11:47:03;2.70;;;2.50;;
42802;SDS011;28447;48.682;9.022;2023-07-22T11:49:31;2.90;;;2.60;;
42802;SDS011;28447;48.682;9.022;2023-07-22T11:52:08;2.70;;;2.50;;
42802;SDS011;28447;48.682;9.022;2023-07-22T11:54:37;3.23;;;2.50;;
42802;SDS011;28447;48.682;9.022;2023-07-22T11:57:19;4.63;;;2.43;;
42802;SDS011;28447;48.682;9.022;2023-07-22T11:59:55;3.20;;;2.90;;
42802;SDS011;28447;48.682;9.022;2023-07-22T12:02:25;3.27;;;2.97;;
42802;SDS011;28447;48.682;9.022;2023-07-22T12:05:00;4.77;;;3.03;;
42802;SDS011;28447;48.682;9.022;2023-07-22T12:07:34;3.87;;;3.23;;
42802;SDS011;28447;48.682;9.022;2023-07-22T12:10:03;4.30;;;2.90;;
42802;SDS011;28447;48.682;9.022;2023-07-22T12:12:39;3.10;;;2.60;;
42802;SDS011;28447;48.682;9.022;2023-07-22T12:17:45;3.10;;;2.78;;
42802;SDS011;28447;48.682;9.022;2023-07-22T12:20:16;4.93;;;2.88;;
42802;SDS011;28447;48.682;9.022;2023-07-22T12:22:45;4.57;;;3.70;;
42802;SDS011;28447;48.682;9.022;2023-07-22T12:25:13;4.80;;;2.90;;
42802;SDS011;28447;48.682;9.022;2023-07-22T12:27:39;3.53;;;3.07;;
42802;SDS011;28447;48.682;9.022;2023-07-22T12:30:05;3.33;;;2.70;;
42802;SDS011;28447;48.682;9.022;2023-07-22T12:32:32;4.72;;;2.78;;
42802;SDS011;28447;48.682;9.022;2023-07-22T12:34:58;3.00;;;2.45;;
42802;SDS011;28447;48.682;9.022;2023-07-22T12:37:23;4.13;;;2.78;;
42802;SDS011;28447;48.682;9.022;2023-07-22T12:39:50;3.47;;;3.10;;
42802;SDS011;28447;48.682;9.022;2023-07-22T12:42:16;3.78;;;2.80;;
42802;SDS011;28447;48.682;9.022;2023-07-22T12:44:42;2.80;;;2.60;;
42802;SDS011;28447;48.682;9.022;2023-07-22T12:47:07;3.75;;;3.00;;
42802;SDS011;28447;48.682;9.022;2023-07-22T12:49:33;4.45;;;3.40;;
42802;SDS011;28447;48.682;9.022;2023-07-22T12:51:59;3.50;;;2.72;;
42802;SDS011;28447;48.682;9.022;2023-07-22T12:54:29;4.15;;;3.25;;
42802;SDS011;28447;48.682;9.022;2023-07-22T12:56:56;3.42;;;3.13;;
42802;SDS011;28447;48.682;9.022;2023-07-22T12:59:24;4.28;;;3.88;;
42802;SDS011;28447;48.682;9.022;2023-07-22T13:01:53;3.50;;;3.20;;
42802;SDS011;28447;48.682;9.022;2023-07-22T13:04:19;3.92;;;3.53;;
42802;SDS011;28447;48.682;9.022;2023-07-22T13:06:45;3.97;;;3.58;;
42802;SDS011;28447;48.682;9.022;2023-07-22T13:09:10;3.85;;;3.45;;
42802;SDS011;28447;48.682;9.022;2023-07-22T13:11:36;4.28;;;3.50;;
42802;SDS011;28447;48.682;9.022;2023-07-22T13:14:02;3.63;;;3.33;;
42802;SDS011;28447;48.682;9.022;2023-07-22T13:16:27;3.67;;;3.38;;
42802;SDS011;28447;48.682;9.022;2023-07-22T13:18:53;3.40;;;3.05;;
42802;SDS011;28447;48.682;9.022;2023-07-22T13:21:19;4.18;;;3.60;;
42802;SDS011;28447;48.682;9.022;2023-07-22T13:23:44;6.10;;;3.40;;
42802;SDS011;28447;48.682;9.022;2023-07-22T13:26:10;3.50;;;3.20;;
42802;SDS011;28447;48.682;9.022;2023-07-22T13:28:35;3.50;;;3.20;;
42802;SDS011;28447;48.682;9.022;2023-07-22T13:31:01;4.60;;;3.95;;
42802;SDS011;28447;48.682;9.022;2023-07-22T13:33:30;6.60;;;3.25;;
42802;SDS011;28447;48.682;9.022;2023-07-22T13:35:56;5.75;;;3.85;;
42802;SDS011;28447;48.682;9.022;2023-07-22T13:38:21;4.07;;;3.58;;
42802;SDS011;28447;48.682;9.022;2023-07-22T13:40:47;4.03;;;3.70;;
42802;SDS011;28447;48.682;9.022;2023-07-22T13:43:13;3.42;;;3.10;;
42802;SDS011;28447;48.682;9.022;2023-07-22T13:45:38;3.72;;;3.33;;
42802;SDS011;28447;48.682;9.022;2023-07-22T13:48:04;3.58;;;3.28;;
42802;SDS011;28447;48.682;9.022;2023-07-22T13:50:30;4.90;;;4.40;;
42802;SDS011;28447;48.682;9.022;2023-07-22T13:52:55;5.60;;;4.23;;
42802;SDS011;28447;48.682;9.022;2023-07-22T13:55:21;8.73;;;3.93;;
42802;SDS011;28447;48.682;9.022;2023-07-22T13:57:47;3.80;;;3.50;;
42802;SDS011;28447;48.682;9.022;2023-07-22T14:00:12;6.30;;;3.47;;
42802;SDS011;28447;48.682;9.022;2023-07-22T14:02:39;4.10;;;3.17;;
42802;SDS011;28447;48.682;9.022;2023-07-22T14:05:05;6.25;;;3.53;;
42802;SDS011;28447;48.682;9.022;2023-07-22T14:07:32;4.60;;;3.60;;
42802;SDS011;28447;48.682;9.022;2023-07-22T14:09:58;3.67;;;3.37;;
42802;SDS011;28447;48.682;9.022;2023-07-22T14:12:23;5.33;;;3.30;;
42802;SDS011;28447;48.682;9.022;2023-07-22T14:14:49;4.63;;;3.27;;
42802;SDS011;28447;48.682;9.022;2023-07-22T14:17:15;4.87;;;4.20;;
42802;SDS011;28447;48.682;9.022;2023-07-22T14:19:40;4.40;;;4.00;;
42802;SDS011;28447;48.682;9.022;2023-07-22T14:22:06;4.23;;;3.83;;
42802;SDS011;28447;48.682;9.022;2023-07-22T14:24:33;3.95;;;3.50;;
42802;SDS011;28447;48.682;9.022;2023-07-22T14:26:59;6.10;;;3.40;;
42802;SDS011;28447;48.682;9.022;2023-07-22T14:29:24;4.18;;;3.75;;
42802;SDS011;28447;48.682;9.022;2023-07-22T14:31:50;4.18;;;3.40;;
42802;SDS011;28447;48.682;9.022;2023-07-22T14:34:16;4.38;;;3.50;;
42802;SDS011;28447;48.682;9.022;2023-07-22T14:36:45;6.30;;;3.60;;
42802;SDS011;28447;48.682;9.022;2023-07-22T14:39:11;3.70;;;3.30;;
42802;SDS011;28447;48.682;9.022;2023-07-22T14:41:36;3.80;;;3.40;;
42802;SDS011;28447;48.682;9.022;2023-07-22T14:44:02;4.30;;;3.90;;
42802;SDS011;28447;48.682;9.022;2023-07-22T14:46:28;3.78;;;3.35;;
42802;SDS011;28447;48.682;9.022;2023-07-22T14:48:54;4.45;;;3.95;;
42802;SDS011;28447;48.682;9.022;2023-07-22T14:51:19;3.55;;;3.00;;
42802;SDS011;28447;48.682;9.022;2023-07-22T14:53:45;4.32;;;3.20;;
42802;SDS011;28447;48.682;9.022;2023-07-22T14:56:11;4.40;;;4.00;;
42802;SDS011;28447;48.682;9.022;2023-07-22T14:58:36;4.60;;;3.50;;
42802;SDS011;28447;48.682;9.022;2023-07-22T15:01:02;4.23;;;3.50;;
42802;SDS011;28447;48.682;9.022;2023-07-22T15:03:28;5.10;;;4.20;;
42802;SDS011;28447;48.682;9.022;2023-07-22T15:05:53;4.70;;;3.83;;
42802;SDS011;28447;48.682;9.022;2023-07-22T15:08:19;4.30;;;3.60;;
42802;SDS011;28447;48.682;9.022;2023-07-22T15:10:44;4.90;;;3.93;;
42802;SDS011;28447;48.682;9.022;2023-07-22T15:13:10;4.23;;;3.83;;
42802;SDS011;28447;48.682;9.022;2023-07-22T15:15:36;4.40;;;3.53;;
42802;SDS011;28447;48.682;9.022;2023-07-22T15:18:01;5.10;;;3.67;;
42802;SDS011;28447;48.682;9.022;2023-07-22T15:20:27;5.07;;;3.97;;
42802;SDS011;28447;48.682;9.022;2023-07-22T15:22:53;5.23;;;3.80;;
42802;SDS011;28447;48.682;9.022;2023-07-22T15:25:18;4.60;;;3.90;;
42802;SDS011;28447;48.682;9.022;2023-07-22T15:27:44;7.43;;;3.60;;
42802;SDS011;28447;48.682;9.022;2023-07-22T15:30:10;4.47;;;4.00;;
42802;SDS011;28447;48.682;9.022;2023-07-22T15:32:35;4.40;;;3.40;;
42802;SDS011;28447;48.682;9.022;2023-07-22T15:35:01;4.67;;;3.87;;
42802;SDS011;28447;48.682;9.022;2023-07-22T15:37:27;6.33;;;4.03;;
42802;SDS011;28447;48.682;9.022;2023-07-22T15:39:53;5.00;;;4.13;;
42802;SDS011;28447;48.682;9.022;2023-07-22T15:42:18;4.30;;;3.90;;
42802;SDS011;28447;48.682;9.022;2023-07-22T15:44:44;7.53;;;4.00;;
42802;SDS011;28447;48.682;9.022;2023-07-22T15:47:09;5.40;;;4.03;;
42802;SDS011;28447;48.682;9.022;2023-07-22T15:49:35;5.50;;;3.93;;
42802;SDS011;28447;48.682;9.022;2023-07-22T15:52:01;4.57;;;4.03;;
42802;SDS011;28447;48.682;9.022;2023-07-22T15:54:26;4.30;;;3.77;;
42802;SDS011;28447;48.682;9.022;2023-07-22T15:56:55;5.40;;;3.87;;
42802;SDS011;28447;48.682;9.022;2023-07-22T15:59:21;4.43;;;3.60;;
42802;SDS011;28447;48.682;9.022;2023-07-22T16:01:46;4.40;;;3.50;;
42802;SDS011;28447;48.682;9.022;2023-07-22T16:04:12;4.03;;;3.63;;
42802;SDS011;28447;48.682;9.022;2023-07-22T16:06:38;4.60;;;3.63;;
42802;SDS011;28447;48.682;9.022;2023-07-22T16:09:04;4.23;;;3.60;;
42802;SDS011;28447;48.682;9.022;2023-07-22T16:11:30;3.80;;;3.13;;
42802;SDS011;28447;48.682;9.022;2023-07-22T16:13:56;5.50;;;4.13;;
42802;SDS011;28447;48.682;9.022;2023-07-22T16:16:22;6.77;;;3.60;;
42802;SDS011;28447;48.682;9.022;2023-07-22T16:18:47;5.03;;;3.70;;
42802;SDS011;28447;48.682;9.022;2023-07-22T16:21:13;4.03;;;3.53;;
42802;SDS011;28447;48.682;9.022;2023-07-22T16:23:39;4.83;;;3.50;;
42802;SDS011;28447;48.682;9.022;2023-07-22T16:26:05;3.77;;;3.40;;
42802;SDS011;28447;48.682;9.022;2023-07-22T16:28:30;4.77;;;3.90;;
42802;SDS011;28447;48.682;9.022;2023-07-22T16:30:56;4.80;;;3.60;;
42802;SDS011;28447;48.682;9.022;2023-07-22T16:33:22;5.33;;;3.97;;
42802;SDS011;28447;48.682;9.022;2023-07-22T16:35:48;4.70;;;3.93;;
42802;SDS011;28447;48.682;9.022;2023-07-22T16:38:13;4.47;;;3.57;;
42802;SDS011;28447;48.682;9.022;2023-07-22T16:40:39;4.70;;;4.30;;
42802;SDS011;28447;48.682;9.022;2023-07-22T16:43:04;4.57;;;4.13;;
42802;SDS011;28447;48.682;9.022;2023-07-22T16:45:30;6.50;;;3.83;;
42802;SDS011;28447;48.682;9.022;2023-07-22T16:47:56;4.17;;;3.77;;
42802;SDS011;28447;48.682;9.022;2023-07-22T16:50:21;5.30;;;3.87;;
42802;SDS011;28447;48.682;9.022;2023-07-22T16:52:47;5.37;;;3.83;;
42802;SDS011;28447;48.682;9.022;2023-07-22T16:55:13;4.50;;;3.77;;
42802;SDS011;28447;48.682;9.022;2023-07-22T16:57:39;4.83;;;4.03;;
42802;SDS011;28447;48.682;9.022;2023-07-22T17:00:10;3.73;;;3.40;;
42802;SDS011;28447;48.682;9.022;2023-07-22T17:02:41;7.33;;;5.27;;
42802;SDS011;28447;48.682;9.022;2023-07-22T17:05:08;5.20;;;4.03;;
42802;SDS011;28447;48.682;9.022;2023-07-22T17:07:34;7.03;;;5.17;;
42802;SDS011;28447;48.682;9.022;2023-07-22T17:10:00;5.10;;;4.20;;
42802;SDS011;28447;48.682;9.022;2023-07-22T17:12:26;5.40;;;4.50;;
42802;SDS011;28447;48.682;9.022;2023-07-22T17:14:55;5.67;;;3.47;;
42802;SDS011;28447;48.682;9.022;2023-07-22T17:17:20;4.90;;;4.13;;
42802;SDS011;28447;48.682;9.022;2023-07-22T17:19:46;4.37;;;3.97;;
42802;SDS011;28447;48.682;9.022;2023-07-22T17:22:12;4.30;;;3.90;;
42802;SDS011;28447;48.682;9.022;2023-07-22T17:24:37;3.83;;;3.53;;
42802;SDS011;28447;48.682;9.022;2023-07-22T17:27:03;4.07;;;3.67;;
42802;SDS011;28447;48.682;9.022;2023-07-22T17:29:29;4.57;;;3.63;;
42802;SDS011;28447;48.682;9.022;2023-07-22T17:31:55;5.47;;;3.63;;
42802;SDS011;28447;48.682;9.022;2023-07-22T17:34:21;4.10;;;3.63;;
42802;SDS011;28447;48.682;9.022;2023-07-22T17:36:46;4.20;;;3.80;;
42802;SDS011;28447;48.682;9.022;2023-07-22T17:39:12;4.40;;;3.73;;
42802;SDS011;28447;48.682;9.022;2023-07-22T17:41:38;5.97;;;3.90;;
42802;SDS011;28447;48.682;9.022;2023-07-22T17:44:04;3.73;;;2.90;;
42802;SDS011;28447;48.682;9.022;2023-07-22T17:46:47;7.20;;;3.43;;
42802;SDS011;28447;48.682;9.022;2023-07-22T17:49:13;4.23;;;3.53;;
42802;SDS011;28447;48.682;9.022;2023-07-22T17:51:39;7.50;;;3.80;;
42802;SDS011;28447;48.682;9.022;2023-07-22T17:54:04;4.13;;;3.73;;
42802;SDS011;28447;48.682;9.022;2023-07-22T17:56:30;3.97;;;3.57;;
42802;SDS011;28447;48.682;9.022;2023-07-22T17:59:00;3.83;;;3.50;;
42802;SDS011;28447;48.682;9.022;2023-07-22T18:01:29;6.07;;;3.80;;
42802;SDS011;28447;48.682;9.022;2023-07-22T18:03:55;4.10;;;3.53;;
42802;SDS011;28447;48.682;9.022;2023-07-22T18:06:20;5.33;;;3.67;;
42802;SDS011;28447;48.682;9.022;2023-07-22T18:08:48;4.37;;;3.70;;
42802;SDS011;28447;48.682;9.022;2023-07-22T18:11:14;4.80;;;3.60;;
42802;SDS011;28447;48.682;9.022;2023-07-22T18:13:42;5.77;;;3.40;;
42802;SDS011;28447;48.682;9.022;2023-07-22T18:16:08;4.73;;;3.30;;
42802;SDS011;28447;48.682;9.022;2023-07-22T18:18:34;4.20;;;3.80;;
42802;SDS011;28447;48.682;9.022;2023-07-22T18:20:59;5.90;;;3.73;;
42802;SDS011;28447;48.682;9.022;2023-07-22T18:23:26;5.17;;;3.30;;
42802;SDS011;28447;48.682;9.022;2023-07-22T18:25:52;4.27;;;3.87;;
42802;SDS011;28447;48.682;9.022;2023-07-22T18:28:21;4.03;;;3.07;;
42802;SDS011;28447;48.682;9.022;2023-07-22T18:30:49;4.60;;;3.73;;
42802;SDS011;28447;48.682;9.022;2023-07-22T18:33:15;7.33;;;3.50;;
42802;SDS011;28447;48.682;9.022;2023-07-22T18:35:45;4.30;;;3.60;;
42802;SDS011;28447;48.682;9.022;2023-07-22T18:38:13;5.80;;;4.10;;
42802;SDS011;28447;48.682;9.022;2023-07-22T18:40:42;4.97;;;3.87;;
42802;SDS011;28447;48.682;9.022;2023-07-22T18:43:08;4.10;;;3.43;;
42802;SDS011;28447;48.682;9.022;2023-07-22T18:45:34;5.83;;;4.20;;
42802;SDS011;28447;48.682;9.022;2023-07-22T18:48:00;4.00;;;3.57;;
42802;SDS011;28447;48.682;9.022;2023-07-22T18:50:25;4.17;;;3.43;;
42802;SDS011;28447;48.682;9.022;2023-07-22T18:52:53;4.83;;;3.90;;
42802;SDS011;28447;48.682;9.022;2023-07-22T18:55:19;4.47;;;4.00;;